Terminal Aerodrome Forecast
Issued by NWS

Home | Current Version | Previous Version | Text Only | Print | Product List | Glossary On
Versions: 1 2 3 4 5 6 7 8 9 10 11 12 13
000
FTUS43 KSGF 271100
TAFBBG
TAF
KBBG 271120Z 2712/2812 VRB03KT P6SM SCT050
     FM271700 12005KT P6SM SCT050 PROB30 2721/2724 P6SM TS BKN050CB
     FM280100 VRB03KT P6SM SCT250=

USA.gov is the U.S. government's official web portal to all federal, state and local government web resources and services.